ADDS METAR Data INFO
IDs: Format: Raw Decoded Include TAF

Data at: 0622 UTC 15 Dec 2017

PAWI 150553Z AUTO 07023KT 3/4SM -SN BR OVC031 M16/M18 A2978 RMK PK WND 06031/0500 SLP086 P0000 60000 T11611178 11150 21161 52007 TSNO VIA AUTODIAL
PAWI 150520Z AUTO 07024KT 3/4SM -SN BR OVC033 M16/M18 A2978 RMK PK WND 06031/0500 P0000 T11611178 TSNO VIA AUTODIAL
PAWI 150453Z AUTO 06025KT 3/4SM -SN BR VV018 M16/M18 A2977 RMK PK WND 06030/0410 SLP083 P0000 T11611178 TSNO VIA AUTODIAL
PAWI 150353Z AUTO 06022KT 3/4SM -SN BR VV016 M16/M17 A2977 RMK PK WND 06031/0304 SLP082 P0000 T11611172 TSNO VIA AUTODIAL
PAWI 150253Z AUTO 06026KT 3/4SM -SN BR OVC025 M16/M17 A2976 RMK PK WND 06033/0219 SLP079 P0000 60000 T11561172 53002 TSNO VIA AUTODIAL
PAWI 150237Z AUTO 06027KT 1/2SM -SN FZFG OVC029 M16/M17 A2975 RMK PK WND 06033/0219 P0000 T11561172 TSNO VIA AUTODIAL
PAWI 150213Z AUTO 06026KT 1/2SM -SN FZFG OVC032 M16/M17 A2975 RMK PK WND 06033/0204 P0000 T11561172 TSNO VIA AUTODIAL
PAWI 150156Z 05027KT 1/2SM -SN FZFG OVC028 M16/M17 A2975 RMK VIA PHONE
PAWI 150141Z 05025KT 1/2SM -SN FZFG OVC026 M16/M17 A2975 RMK VIA PHONE
PAWI 141953Z AUTO 06028KT 1/4SM -SN FZFG VV020 M14/M16 A2975 RMK PK WND 06036/1911 SLP075 P0000 T11441161 TSNO VIA AUTODIAL
PAWI 141931Z AUTO 06027KT 1/4SM -SN FZFG OVC026 M14/M16 A2975 RMK PK WND 06036/1911 P0000 T11441156 TSNO VIA AUTODIAL
PAWI 141920Z AUTO 06029G36KT 1/4SM -SN FZFG OVC033 M14/M16 A2975 RMK PK WND 06036/1911 P0000 T11441156 TSNO VIA AUTODIAL
PAWI 141906Z AUTO 06027KT 1/4SM -SN FZFG VV019 M14/M16 A2976 RMK PK WND 06033/1856 P0000 T11441156 TSNO VIA AUTODIAL
PAWI 141853Z AUTO 06026KT 1/4SM -SN FZFG VV012 M14/M16 A2975 RMK PK WND 06032/1826 SLP077 P0000 T11441161 TSNO VIA AUTODIAL
PAWI 141753Z AUTO 07025KT 1/4SM -SN FZFG VV012 M14/M16 A2976 RMK PK WND 05032/1715 SLP080 P0000 60000 T11441156 11128 21144 55001 TSNO VIA AUTODIAL
PAWI 141706Z AUTO 06025KT 1/4SM -SN FZFG VV010 M14/M16 A2976 RMK PK WND 06032/1658 P0000 T11391156 TSNO VIA AUTODIAL
PAWI 141653Z AUTO 06025KT 1/4SM -SN FZFG VV009 M14/M16 A2976 RMK PK WND 06032/1604 SLP079 P0000 T11391156 TSNO VIA AUTODIAL
PAWI 141650Z AUTO 06024KT 1/4SM -SN FZFG VV010 M14/M16 A2976 RMK PK WND 06032/1604 P0000 TSNO VIA AUTODIAL
PAWI 141642Z AUTO 06024KT 1/4SM -SN FZFG VV009 M14/M16 A2976 RMK PK WND 06032/1604 P0000 T11391156 TSNO VIA AUTODIAL
PAWI 141553Z AUTO 06024G34KT 1/4SM -SN FZFG VV013 M14/M16 A2977 RMK PK WND 06034/1546 UPE08SNB1455E04B08 SLP081 P0000 T11391156 TSNO VIA AUTODIAL
PAWI 141453Z AUTO 06028KT 1/2SM UP FZFG VV013 M14/M16 A2977 RMK PK WND 06036/1358 UPB39SNE39 SLP082 P0000 60000 T11391156 56005 TSNO VIA AUTODIAL
PAWI 141439Z AUTO 07028KT 1/4SM UP FZFG VV011 M14/M16 A2977 RMK PK WND 06036/1358 UPB39SNE39 P0000 T11391156 TSNO VIA AUTODIAL
PAWI 141407Z AUTO 07029G36KT 1/4SM -SN FZFG VV009 M14/M16 A2977 RMK PK WND 06036/1358 P0000 T11391156 TSNO VIA AUTODIAL
PAWI 141353Z AUTO 07030G35KT 1/4SM -SN FZFG VV011 M14/M15 A2977 RMK PK WND 07036/1337 SLP083 P0000 T11391150 TSNO VIA AUTODIAL
PAWI 141329Z AUTO 06028KT 1/4SM -SN FZFG VV010 M14/M15 A2977 RMK PK WND 06035/1320 P0000 T11391150 TSNO VIA AUTODIAL
PAWI 141253Z AUTO 06030KT 1/4SM -SN FZFG VV006 M13/M14 A2977 RMK PK WND 06035/1237 SLP083 P0000 T11331144 TSNO VIA AUTODIAL
PAWI 141153Z AUTO 06029G35KT 1/2SM -SN FZFG BKN007 OVC011 M13/M14 A2978 RMK PK WND 06036/1055 SLP087 P0000 60000 T11281139 11122 21150 55002 TSNO VIA AUTODIAL
PAWI 141151Z AUTO 06030G34KT 1/2SM -SN FZFG BKN007 OVC011 M13/M14 A2978 RMK PK WND 06036/1055 P0000 TSNO VIA AUTODIAL
PAWI 141109Z AUTO 06028KT 1/2SM -SN FZFG OVC011 M13/M14 A2979 RMK PK WND 06036/1055 P0000 T11281144 TSNO VIA AUTODIAL
PAWI 141053Z AUTO 06027KT 1/2SM -SN FZFG OVC009 M13/M14 A2979 RMK PK WND 06037/0956 UPE39SNB0958E08B39 SLP089 P0000 T11281144 TSNO VIA AUTODIAL
PAWI 141051Z AUTO 06026KT 1/2SM -SN FZFG OVC009 M13/M14 A2979 RMK PK WND 06037/0956 UPE39SNB0958E08B39 P0000 TSNO VIA AUTODIAL
PAWI 140953Z AUTO 06028G35KT 1/2SM UP FZFG OVC011 M13/M14 A2979 RMK PK WND 05036/0914 SNB16E26 SLP089 P0000 T11281139 TSNO VIA AUTODIAL
PAWI 140912Z AUTO 06031G35KT 1/2SM UP FZFG OVC014 M13/M14 A2979 RMK PK WND 06035/0911 P0000 T11281144 TSNO VIA AUTODIAL
PAWI 140853Z AUTO 06029KT 1/2SM UP FZFG FEW006 OVC015 M13/M14 A2979 RMK PK WND 06034/0839 SLP089 P0000 60000 T11331144 411281150 58012 TSNO VIA AUTODIAL
PAWI 140851Z AUTO 06029G33KT 1/2SM UP FZFG FEW006 OVC015 M13/M14 A2979 RMK PK WND 06034/0839 P0000 TSNO VIA AUTODIAL
PAWI 140753Z AUTO 05024G32KT 3/4SM UP BR FEW008 BKN012 OVC120 M14/M16 A2981 RMK PK WND 06037/0703 UPB12SNE12B13E15 SLP095 P0000 T11441161 TSNO VIA AUTODIAL
PAWI 140750Z AUTO 06028KT 3/4SM UP BR FEW007 BKN014 OVC120 M14/M16 A2981 RMK PK WND 06037/0703 UPB12SNE12B13E15 P0000 TSNO VIA AUTODIAL
PAWI 140724Z AUTO 06028G34KT 1SM UP BR BKN014 OVC110 M14/M16 A2982 RMK PK WND 06037/0703 UPB12SNE12B13E15 P0000 T11441161 TSNO VIA AUTODIAL
PAWI 140709Z AUTO 06028G37KT 3/4SM -SN BR SCT003 BKN012 OVC110 M15/M17 A2982 RMK PK WND 06037/0703 P0000 T11501167 TSNO VIA AUTODIAL
PAWI 140653Z AUTO 06030G39KT 1/2SM -SN FZFG BKN002 OVC110 M15/M17 A2982 RMK PK WND 06040/0610 SLP098 P0000 T11501167 TSNO VIA AUTODIAL
PAWI 140611Z AUTO 06033G40KT 1/4SM -SN FZFG BKN002 OVC100 M15/M17 A2982 RMK PK WND 06040/0610 P0000 T11501167 TSNO VIA AUTODIAL
PAWI 140553Z AUTO 07032G36KT 1/2SM -SN FZFG FEW002 OVC100 M14/M16 A2982 RMK PK WND 06039/0459 UPB13E35SNE13B17E29B35 SLP100 P0000 60000 T11441161 11128 21150 53005 TSNO VIA AUTODIAL
PAWI 140453Z AUTO 06030G38KT 1/2SM -SN FZFG FEW004 OVC100 M13/M14 A2981 RMK PK WND 06040/0423 SLP096 P0000 T11281144 TSNO VIA AUTODIAL
PAWI 140449Z AUTO 06026G38KT 1/2SM -SN FZFG SCT003 OVC100 M13/M14 A2981 RMK PK WND 06040/0423 P0000 TSNO VIA AUTODIAL
PAWI 140353Z AUTO 06032G40KT 1/4SM -SN FZFG BKN003 OVC100 M13/M15 A2981 RMK PK WND 06042/0256 UPB18E35SNE18B21E34B35 SLP095 P0000 T11331150 TSNO VIA AUTODIAL
PAWI 140253Z AUTO 07032G44KT 1/4SM -SN FZFG BKN002 OVC100 M15/M17 A2983 RMK PK WND 06044/0248 SLP103 P0000 60000 T11501167 58005 TSNO VIA AUTODIAL
PAWI 140251Z AUTO 07032G44KT 1/4SM -SN FZFG BKN002 OVC100 M14/M16 A2983 RMK PK WND 06044/0248 P0000 TSNO VIA AUTODIAL
PAWI 140153Z AUTO 06035G41KT 1/2SM -SN FZFG SCT003 SCT015 OVC090 M14/M16 A2985 RMK PK WND 05053/0118 SLP108 P0000 T11441161 TSNO VIA AUTODIAL
PAWI 140151Z AUTO 06036G41KT 1/2SM -SN FZFG SCT003 SCT015 OVC090 M14/M16 A2984 RMK PK WND 05053/0118 P0000 TSNO VIA AUTODIAL
PAWI 140141Z AUTO 07032G41KT 1/4SM -SN FZFG SCT002 BKN015 OVC090 M14/M16 A2985 RMK PK WND 05053/0118 P0000 T11441161 TSNO VIA AUTODIAL
PAWI 140103Z AUTO 07027G51KT 1/4SM -SN FZFG FEW002 BKN090 OVC100 M14/M16 A2986 RMK PK WND 05051/0101 P0000 T11441161 TSNO VIA AUTODIAL
PAWI 140053Z AUTO 07027G46KT 1/4SM -SN FZFG BKN002 OVC100 M14/M16 A2986 RMK PK WND 06054/0037 SLP112 P0000 T11391156 TSNO VIA AUTODIAL
PAWI 140014Z AUTO 07031G50KT 1/4SM -SN FZFG BKN002 OVC110 M14/M16 A2986 RMK PK WND 05050/0014 P0000 T11391156 TSNO VIA AUTODIAL
PAWI 132353Z AUTO 06033G40KT 1/2SM -SN FZFG SCT002 OVC110 M14/M16 A2986 RMK PK WND 06042/2341 SLP113 P0000 60000 T11391156 11139 21150 56021 TSNO VIA AUTODIAL
PAWI 132339Z AUTO 06032KT 1/2SM -SN FZFG SCT002 OVC110 M14/M16 A2986 RMK PK WND 06041/2322 P0000 T11391156 TSNO VIA AUTODIAL
PAWI 132253Z AUTO 07032G40KT 1/4SM -SN FZFG VV002 M14/M16 A2989 RMK PK WND 07041/2234 SLP122 P0000 T11391156 TSNO VIA AUTODIAL
PAWI 132200Z AUTO 05031G39KT 1/4SM -SN FZFG VV003 M14/M16 A2987 RMK PK WND 05039/2158 P0000 T11441161 TSNO VIA AUTODIAL
PAWI 132153Z AUTO 05029G38KT 1/4SM -SN FZFG VV004 M14/M16 A2987 RMK PK WND 05038/2149 UPB2054E33SNE2054B33 SLP114 P0000 T11441161 TSNO VIA AUTODIAL
PAWI 132151Z AUTO 05028G38KT 1/4SM -SN FZFG VV004 M14/M16 A2987 RMK PK WND 05038/2149 UPB2054E33SNE2054B33 P0000 TSNO VIA AUTODIAL
PAWI 132053Z AUTO 06028G35KT 1/2SM -SN FZFG VV006 M14/M16 A2992 RMK PK WND 06040/1955 UPB25E50SNE25B26E29B31E36B39E41B44E49B50 SLP134 P0000 60000 T11441161 55003 TSNO VIA AUTODIAL
PAWI 131953Z AUTO 06033G39KT 1/4SM -SN FZFG VV005 M14/M16 A2991 RMK PK WND 06039/1952 SLP129 P0000 T11441161 TSNO VIA AUTODIAL
PAWI 131853Z AUTO 06032G37KT 1/4SM -SN FZFG OVC007 M14/M16 A2990 RMK PK WND 05037/1852 UPB01E49SNE01B49 SLP128 P0000 T11441161 TSNO VIA AUTODIAL
PAWI 131844Z AUTO 06030KT 1/4SM UP FZFG OVC009 M14/M16 A2991 RMK PK WND 06036/1832 UPB01SNE01 P0000 T11441161 TSNO VIA AUTODIAL